createdAt,value
2023-02-02T00:02:28.344Z,62.81
2023-02-02T00:15:14.089Z,62.30
2023-02-02T00:21:40.003Z,62.66
2023-02-02T00:27:49.496Z,62.66
2023-02-02T00:34:04.044Z,61.37
2023-02-02T00:40:30.744Z,61.19
2023-02-02T00:46:51.338Z,60.87
2023-02-02T01:12:14.936Z,63.68
2023-02-02T01:18:27.088Z,63.08
2023-02-02T01:24:28.895Z,63.36
2023-02-02T01:30:31.681Z,62.28
2023-02-02T01:36:43.253Z,62.76
2023-02-02T01:42:50.408Z,63.14
2023-02-02T01:48:59.175Z,62.68
2023-02-02T01:55:09.693Z,63.01
2023-02-02T02:01:23.428Z,61.92
2023-02-02T02:07:25.655Z,64.05
2023-02-02T02:13:48.201Z,64.68
2023-02-02T02:20:33.855Z,63.80
2023-02-02T02:26:55.428Z,64.83
2023-02-02T02:33:07.935Z,64.99
2023-02-02T02:39:34.454Z,64.12
2023-02-02T02:45:37.918Z,66.13
2023-02-02T02:58:06.623Z,66.41
2023-02-02T03:04:38.601Z,65.62
2023-02-02T03:10:49.035Z,66.22
2023-02-02T03:16:54.428Z,67.13
2023-02-02T03:22:59.912Z,65.35
2023-02-02T03:29:10.690Z,65.65
2023-02-02T03:35:19.863Z,67.40
2023-02-02T03:41:22.398Z,65.59
2023-02-02T03:47:24.826Z,66.13
2023-02-02T03:53:27.330Z,66.00
2023-02-02T03:59:29.774Z,67.08
2023-02-02T04:05:32.256Z,65.43
2023-02-02T04:11:34.694Z,65.65
2023-02-02T04:17:38.154Z,65.67
2023-02-02T04:23:42.885Z,66.11
2023-02-02T04:29:45.077Z,66.80
2023-02-02T04:35:49.991Z,66.63
2023-02-02T04:41:54.055Z,66.72
2023-02-02T04:48:09.478Z,68.05
2023-02-02T04:54:14.964Z,67.35
2023-02-02T05:00:17.461Z,68.12
2023-02-02T05:06:26.895Z,67.95
2023-02-02T05:12:32.433Z,67.40
2023-02-02T05:18:38.540Z,68.84
2023-02-02T05:24:40.433Z,70.25
2023-02-02T05:30:42.898Z,69.75
2023-02-02T05:36:45.345Z,71.72
2023-02-02T05:42:49.846Z,70.01
2023-02-02T05:48:59.813Z,70.82
2023-02-02T05:55:06.769Z,68.86
2023-02-02T06:01:10.060Z,72.42
2023-02-02T06:07:16.404Z,72.81
2023-02-02T06:13:19.196Z,70.79
2023-02-02T06:19:21.687Z,70.72
2023-02-02T06:25:30.153Z,70.29
2023-02-02T06:31:32.718Z,69.16
2023-02-02T06:37:42.457Z,69.64
2023-02-02T06:43:52.626Z,69.37
2023-02-02T06:49:55.104Z,69.23
2023-02-02T06:56:01.563Z,69.00
2023-02-02T07:02:04.001Z,68.66
2023-02-02T07:08:07.439Z,68.43
2023-02-02T07:14:12.940Z,68.44
2023-02-02T07:20:18.435Z,66.96
2023-02-02T07:26:22.922Z,66.46
2023-02-02T07:32:28.348Z,66.08
2023-02-02T07:38:32.573Z,64.96
2023-02-02T07:44:36.299Z,64.89
2023-02-02T07:50:40.769Z,65.02
2023-02-02T07:56:43.221Z,64.84
2023-02-02T08:02:59.099Z,62.76
2023-02-02T08:09:03.245Z,63.83
2023-02-02T08:15:12.670Z,61.37
2023-02-02T08:21:22.874Z,59.14
2023-02-02T08:34:21.765Z,55.19
2023-02-02T08:40:33.240Z,53.98
2023-02-02T08:47:00.578Z,53.60
2023-02-02T08:53:02.905Z,54.74
2023-02-02T08:59:24.069Z,54.20
2023-02-02T09:05:40.528Z,55.06
2023-02-02T09:18:12.174Z,55.01
2023-02-02T09:24:34.329Z,55.74
2023-02-02T09:31:32.254Z,56.97
2023-02-02T09:44:31.369Z,54.80
2023-02-02T09:51:03.969Z,54.97
2023-02-02T09:57:35.659Z,56.11
2023-02-02T10:10:56.077Z,60.28
2023-02-02T10:17:37.797Z,62.22
2023-02-02T10:24:20.458Z,63.17
2023-02-02T10:31:00.935Z,63.46
2023-02-02T10:45:11.702Z,65.48
2023-02-02T10:51:53.736Z,65.51
2023-02-02T10:59:04.225Z,67.08
2023-02-02T11:12:39.741Z,68.25
2023-02-02T11:18:57.327Z,69.07
2023-02-02T11:25:55.975Z,68.14
2023-02-02T11:32:41.559Z,66.08
2023-02-02T11:39:06.761Z,64.05
2023-02-02T11:53:12.497Z,64.08
2023-02-02T12:06:46.032Z,65.80
2023-02-02T12:13:22.885Z,64.90
2023-02-02T12:20:15.347Z,64.80
2023-02-02T12:27:00.296Z,63.36
2023-02-02T12:41:16.733Z,62.60
2023-02-02T12:54:52.214Z,62.84
2023-02-02T13:08:21.392Z,60.82
2023-02-02T13:15:12.504Z,61.15
2023-02-02T13:28:03.804Z,61.62
2023-02-02T13:35:21.536Z,61.99
2023-02-02T13:41:31.360Z,62.34
2023-02-02T13:47:57.319Z,61.28
2023-02-02T13:55:14.540Z,60.92
2023-02-02T14:01:27.287Z,58.17
2023-02-02T14:07:57.916Z,57.94
2023-02-02T14:14:41.465Z,58.15
2023-02-02T14:34:14.554Z,60.23
2023-02-02T14:40:25.644Z,60.82
2023-02-02T14:46:57.074Z,60.58
2023-02-02T14:53:25.560Z,60.89
2023-02-02T14:59:42.676Z,61.74
2023-02-02T15:06:05.242Z,61.77
2023-02-02T15:12:45.614Z,61.20
2023-02-02T15:19:13.821Z,61.63
2023-02-02T15:25:46.794Z,62.72
2023-02-02T15:32:04.046Z,62.73
2023-02-02T15:39:14.493Z,62.97
2023-02-02T15:45:14.131Z,63.56
2023-02-02T15:51:43.904Z,63.07
2023-02-02T15:59:04.751Z,62.76
2023-02-02T16:04:53.830Z,63.03
2023-02-02T16:11:24.039Z,62.83
2023-02-02T16:17:42.049Z,63.17
2023-02-02T16:23:52.541Z,63.58
2023-02-02T16:30:24.534Z,63.61
2023-02-02T16:36:40.200Z,63.82
2023-02-02T16:43:12.888Z,64.06
2023-02-02T16:56:04.507Z,65.59
2023-02-02T17:02:25.452Z,65.20
2023-02-02T17:08:56.263Z,65.81
2023-02-02T17:15:14.743Z,69.22
2023-02-02T17:21:26.079Z,69.69
2023-02-02T17:27:50.629Z,69.65
2023-02-02T17:40:38.686Z,72.24
2023-02-02T17:46:56.842Z,72.14
2023-02-02T17:53:36.803Z,71.77
2023-02-02T17:59:47.518Z,73.11
2023-02-02T18:12:36.928Z,73.19
2023-02-02T18:18:57.218Z,73.00
2023-02-02T18:25:14.772Z,72.54
2023-02-02T18:37:56.046Z,73.33
2023-02-02T18:43:57.860Z,73.14
2023-02-02T18:49:59.674Z,72.36
2023-02-02T18:56:14.106Z,71.34
2023-02-02T19:03:06.316Z,71.84
2023-02-02T19:15:35.553Z,71.12
2023-02-02T19:21:46.982Z,69.28
2023-02-02T19:27:49.258Z,69.50
2023-02-02T19:34:18.173Z,69.30
2023-02-02T19:40:45.789Z,69.48
2023-02-02T19:47:06.328Z,68.34
2023-02-02T19:53:32.858Z,68.46
2023-02-02T19:59:56.487Z,68.32
2023-02-02T20:05:58.907Z,68.04
2023-02-02T20:12:08.464Z,68.06
2023-02-02T20:18:28.927Z,69.18
2023-02-02T20:38:09.040Z,68.56
2023-02-02T20:44:27.575Z,68.49
2023-02-02T20:50:38.062Z,67.82
2023-02-02T21:09:37.506Z,66.30
2023-02-02T21:22:57.728Z,65.32
2023-02-02T21:29:00.960Z,65.80
2023-02-02T21:35:07.449Z,64.39
2023-02-02T21:41:26.563Z,64.50
2023-02-02T21:48:13.893Z,65.02
2023-02-02T21:54:26.115Z,65.20
2023-02-02T22:00:38.397Z,65.38
2023-02-02T22:06:56.315Z,65.80
2023-02-02T22:12:59.578Z,67.96
2023-02-02T22:19:09.536Z,69.31
2023-02-02T22:25:32.628Z,70.75
2023-02-02T22:31:42.684Z,71.86
2023-02-02T22:37:47.178Z,72.69
2023-02-02T22:43:56.085Z,73.83
2023-02-02T22:49:58.505Z,74.01
2023-02-02T22:56:03.968Z,74.22
2023-02-02T23:02:19.066Z,73.22
2023-02-02T23:08:21.978Z,73.54
2023-02-02T23:15:02.353Z,73.02
2023-02-02T23:21:05.043Z,73.69
2023-02-02T23:27:07.501Z,73.83
2023-02-02T23:33:09.930Z,74.21
2023-02-02T23:39:13.417Z,73.59
2023-02-02T23:45:17.874Z,73.15
2023-02-02T23:57:43.961Z,73.45
